Estación de Rapel

Ultimos registro cada 15 minutos 68
Estación Fecha / Hora Temperatura Humedad Lluvia Velocidad Dirección Radiación Presion
68 Rapel 01-09-2026 16:45 22,9 46 0 0,9 295 95 1018,2
67 Rapel 01-09-2026 16:30 23,1 46 0 0,9 314 199 1018,4
66 Rapel 01-09-2026 16:15 23,6 46 0 1,8 314 169 1018,3
65 Rapel 01-09-2026 16:00 23,8 45 0 0,4 307 241 1018,3
64 Rapel 01-09-2026 15:45 24,1 44 0 0,9 281 229 1018,5
63 Rapel 01-09-2026 15:30 24,3 47 0 0,4 349 290 1018,3
62 Rapel 01-09-2026 15:15 24,5 48 0 1,3 51 543 1018,5
61 Rapel 01-09-2026 15:00 24,3 49 0 0,9 32 297 1019,1
60 Rapel 01-09-2026 14:45 24,1 48 0 0,9 20 538 1019
59 Rapel 01-09-2026 14:30 23,9 51 0 0,4 44 605 1019,2
58 Rapel 01-09-2026 14:15 23,4 50 0 0,9 338 782 1019,5
57 Rapel 01-09-2026 14:00 23,5 48 0 0,4 10 824 1019,7
56 Rapel 01-09-2026 13:45 23,2 50 0 1,3 309 698 1020
55 Rapel 01-09-2026 13:30 22,8 53 0 0,9 270 640 1020,3
54 Rapel 01-09-2026 13:15 22,4 53 0 0,9 285 809 1020,7
53 Rapel 01-09-2026 13:00 22,3 57 0 0 314 647 1021
52 Rapel 01-09-2026 12:45 21,4 59 0 0 283 657 1021,1
51 Rapel 01-09-2026 12:30 21,2 57 0 0,9 226 710 1021,4
50 Rapel 01-09-2026 12:15 20,8 61 0 1,3 318 707 1021,8
49 Rapel 01-09-2026 12:00 20,4 63 0 1,8 295 693 1022
48 Rapel 01-09-2026 11:45 19,9 63 0 0,4 326 680 1022,5
47 Rapel 01-09-2026 11:30 19,2 62 0 0,4 10 664 1022,5
46 Rapel 01-09-2026 11:15 18,4 65 0 0,4 71 645 1022,8
45 Rapel 01-09-2026 11:00 17,8 64 0 0 197 628 1022,9
44 Rapel 01-09-2026 10:45 17,2 66 0 0 286 369 1022,7
43 Rapel 01-09-2026 10:30 16,6 69 0 0,4 64 598 1023,1
42 Rapel 01-09-2026 10:15 15,2 76 0 0 83 308 1023,2
41 Rapel 01-09-2026 10:00 14 82 0 0,4 334 483 1023,6
40 Rapel 01-09-2026 09:45 13,3 82 0 0 338 399 1023,6
39 Rapel 01-09-2026 09:30 12,7 83 0 0,9 343 244 1023,4
38 Rapel 01-09-2026 09:15 12,3 84 0 0,4 312 246 1023,3
37 Rapel 01-09-2026 09:00 12,5 83 0 0,9 310 204 1023,3
36 Rapel 01-09-2026 08:45 12,4 83 0 0 337 155 1023,1
35 Rapel 01-09-2026 08:30 12,2 84 0 0 193 70 1023,2
34 Rapel 01-09-2026 08:15 10,9 87 0 0 218 167 1023
33 Rapel 01-09-2026 08:00 9,5 91 0 0 222 77 1022,8
32 Rapel 01-09-2026 07:45 7,9 94 0 0 222 62 1023,3
31 Rapel 01-09-2026 07:30 7,2 94 0 0 222 25 1023,3
30 Rapel 01-09-2026 07:15 6,6 92 0 0,4 146 11 1023
29 Rapel 01-09-2026 07:00 6,8 92 0 0 145 0 1022,8
28 Rapel 01-09-2026 06:45 7,2 91 0 0 172 0 1022,8
27 Rapel 01-09-2026 06:30 8,1 94 0 0 242 0 1022,8
26 Rapel 01-09-2026 06:15 7,9 94 0 0 166 0 1022,7
25 Rapel 01-09-2026 06:00 7,4 94 0 0,9 164 0 1022,9
24 Rapel 01-09-2026 05:45 7 92 0 0,9 166 0 1022,9
23 Rapel 01-09-2026 05:30 7,5 92 0 0 195 0 1022,7
22 Rapel 01-09-2026 05:15 7,8 91 0 0 195 0 1022,7
21 Rapel 01-09-2026 05:00 8,4 93 0 0 256 0 1022,5
20 Rapel 01-09-2026 04:45 8,3 93 0 0,4 256 0 1022,5
19 Rapel 01-09-2026 04:30 8,1 92 0 0,4 315 0 1022,6
18 Rapel 01-09-2026 04:15 8,7 91 0 0 67 0 1022,4
17 Rapel 01-09-2026 04:00 8,9 90 0 0 67 0 1022,4
16 Rapel 01-09-2026 03:45 9,3 91 0 0 67 0 1022,2
15 Rapel 01-09-2026 03:30 9,6 89 0 0 67 0 1022,5
14 Rapel 01-09-2026 03:15 10,2 89 0 0,4 274 0 1022,6
13 Rapel 01-09-2026 03:00 10,4 88 0 0,9 239 0 1022,6
12 Rapel 01-09-2026 02:45 10,1 90 0 0,4 220 0 1022,9
11 Rapel 01-09-2026 02:30 9,6 92 0 0,4 151 0 1023,1
10 Rapel 01-09-2026 02:15 9,6 93 0 0,4 156 0 1023,3
9 Rapel 01-09-2026 02:00 9,5 92 0 0 149 0 1023,7
8 Rapel 01-09-2026 01:45 9,6 91 0 0 149 0 1023,7
7 Rapel 01-09-2026 01:30 9,6 91 0 0 149 0 1023,7
6 Rapel 01-09-2026 01:15 9,8 89 0 0,9 118 0 1023,9
5 Rapel 01-09-2026 01:00 9,8 90 0 0 223 0 1023,9
4 Rapel 01-09-2026 00:45 9,8 90 0 0,4 223 0 1023,8
3 Rapel 01-09-2026 00:30 9,8 90 0 0 75 0 1023,8
2 Rapel 01-09-2026 00:15 10,1 88 0 0 142 0 1023,6
1 Rapel 01-09-2026 00:00 10,3 89 0 0 155 0 1023,5